Latest Weather Observations for Dubbo

IDN60801

Issued at 8:02 pm EST Thursday 30 July 2015 (issued every 30 minutes, with the page automatically refreshed every 10 minutes)

About weather observations | Map of weather stations | Latest weather observations for NSW | Other Formats
Station Details ID: 065070 Name: DUBBO AIRPORT AWS Lat: -32.22 Lon: 148.58 Height: 284.0 m
Data from the previous 72 hours. | See also: Recent months at Dubbo
Date/Time
EST
Temp
°C
App
Temp
°C
Dew
Point
Rel
Hum
%
Delta-T
°C
Wind Press
QNH
hPa
Press
MSL
hPa
Rain
since 9 am
mm
Dir
 
Spd
km/h
Gust
km/h
Spd
kts
Gust
kts
30/08:00pm 8.2 6.0 6.0 86 1.0 N 7 9 4 5 1022.8 1023.2 0.0
30/07:30pm 8.1 6.3 5.6 84 1.1 N 4 7 2 4 1023.0 1023.4 0.0
30/07:00pm 8.7 5.9 5.1 78 1.6 WNW 9 13 5 7 1022.8 1023.2 0.0
30/06:30pm 9.8 7.6 6.2 78 1.7 WNW 7 11 4 6 1022.8 1023.2 0.0
30/06:00pm 10.7 8.2 6.5 75 2.0 NW 9 11 5 6 1022.7 1023.1 0.0
30/05:30pm 10.7 7.4 6.3 74 2.1 NNW 13 15 7 8 1022.5 1022.9 0.0
30/05:00pm 11.9 8.6 6.2 68 2.7 NNW 13 17 7 9 1022.8 1023.2 0.0
30/04:30pm 14.0 9.6 6.6 61 3.6 NNW 19 24 10 13 1022.8 1023.2 0.0
30/04:00pm 14.7 9.7 6.3 57 4.1 NNW 22 30 12 16 1023.1 1023.5 0.0
30/03:30pm 14.0 8.8 5.6 57 4.0 NW 22 30 12 16 1023.8 1024.1 0.0
30/03:00pm 15.6 10.6 6.6 55 4.4 NNW 22 32 12 17 1024.0 1024.4 0.0
30/02:30pm 14.8 9.2 5.6 54 4.4 NNW 24 32 13 17 1024.1 1024.5 0.0
30/02:00pm 15.7 10.6 6.2 53 4.6 NNW 22 33 12 18 1024.7 1025.1 0.0
30/01:30pm 15.4 10.0 6.4 55 4.4 NW 24 32 13 17 1025.1 1025.5 0.0
30/01:00pm 14.6 9.0 5.4 54 4.4 NNW 24 33 13 18 1025.6 1026.0 0.0
30/12:30pm 14.9 8.8 6.5 57 4.1 NNW 28 37 15 20 1025.9 1026.3 0.0
30/12:00pm 15.0 9.1 5.8 54 4.4 NNW 26 35 14 19 1026.2 1026.6 0.0
30/11:30am 14.1 7.6 4.9 54 4.4 NNW 28 35 15 19 1026.7 1027.1 0.0
30/11:00am 13.8 8.6 5.7 58 3.9 NNW 22 32 12 17 1027.3 1027.8 0.0
30/10:00am 10.8 8.6 6.2 73 2.2 NE 7 9 4 5 1028.0 1028.4 0.0
30/09:30am 8.4 5.6 5.3 81 1.4 ENE 9 11 5 6 1028.1 1028.5 0.0
30/09:00am 6.8 3.9 4.6 86 1.0 E 9 11 5 6 1028.3 1028.7 0.0
30/08:00am 2.6 -0.3 2.5 99 0.0 SE 7 9 4 5 1028.1 1028.5 0.0
30/07:54am 2.1 -0.9 2.0 99 0.0 SE 7 9 4 5 1028.2 1028.6 0.0
30/07:30am -0.2 -4.3 -0.3 99 0.0 E 11 11 6 6 1028.0 1028.4 0.0
30/07:27am -0.2 -3.9 -0.3 99 0.0 E 9 11 5 6 1028.0 1028.4 0.0
30/07:00am 0.2 -3.9 0.1 99 0.0 SSE 11 13 6 7 1027.9 1028.3 0.0
30/06:44am 0.1 -3.6 0.0 99 0.0 SSE 9 11 5 6 1027.7 1028.1 0.0
30/06:32am 0.8 -2.8 0.7 99 0.0 SE 9 11 5 6 1027.6 1028.0 0.0
30/06:30am 0.8 -2.4 0.7 99 0.0 SE 7 11 4 6 1027.5 1027.9 0.0
30/06:10am 0.5 -3.5 0.4 99 0.0 SE 11 13 6 7 1027.5 1027.9 0.0
30/06:00am 0.2 -3.9 0.1 99 0.0 SE 11 13 6 7 1027.5 1027.9 0.0
30/05:55am 0.2 -3.5 0.1 99 0.0 SE 9 11 5 6 1027.4 1027.8 0.0
30/05:30am 0.3 -3.4 0.0 98 0.1 ESE 9 11 5 6 1027.3 1027.7 0.0
30/05:00am 1.6 -1.5 1.5 99 0.0 SE 7 11 4 6 1027.5 1027.9 0.0
30/04:30am 1.0 -3.0 0.7 98 0.1 SE 11 13 6 7 1027.5 1027.9 0.0
30/04:00am 2.3 -2.2 2.0 98 0.1 SSE 15 15 8 8 1027.8 1028.2 0.0
30/03:30am 2.3 -1.1 1.9 97 0.2 S 9 13 5 7 1028.0 1028.4 0.0
30/03:00am 2.8 -0.2 2.2 96 0.2 SSE 7 11 4 6 1027.7 1028.1 0.0
30/02:30am 3.4 0.1 2.7 95 0.3 ESE 9 11 5 6 1028.1 1028.5 0.0
30/02:00am 4.4 1.9 3.7 95 0.3 ESE 6 6 3 3 1028.7 1029.1 0.0
30/01:30am 4.1 1.3 3.4 95 0.3 E 7 9 4 5 1028.6 1029.0 0.0
30/01:00am 4.3 2.5 3.7 96 0.3 E 2 7 1 4 1028.7 1029.1 0.0
30/12:30am 3.8 1.9 3.1 95 0.3 ESE 2 6 1 3 1029.3 1029.7 0.0
30/12:00am 4.3 1.2 3.6 95 0.3 SE 9 11 5 6 1029.4 1029.7 0.0
 
Date/Time
EST
Temp
°C
App
Temp
°C
Dew
Point
Rel
Hum
%
Delta-T
°C
Wind Press
QNH
hPa
Press
MSL
hPa
Rain
since 9 am
mm
Dir
 
Spd
km/h
Gust
km/h
Spd
kts
Gust
kts
29/11:30pm 4.9 2.1 2.9 87 0.8 ENE 7 9 4 5 1029.6 1030.0 0.0
29/11:00pm 6.1 4.8 4.3 88 0.8 CALM 0 2 0 1 1029.9 1030.4 0.0
29/10:30pm 6.4 4.0 4.2 86 1.0 E 6 7 3 4 1029.6 1030.0 0.0
29/10:00pm 6.5 5.1 3.8 83 1.2 CALM 0 0 0 0 1029.9 1030.4 0.0
29/09:30pm 6.7 5.0 4.2 84 1.1 E 2 6 1 3 1030.2 1030.7 0.0
29/09:00pm 7.0 4.4 3.4 78 1.5 ESE 6 7 3 4 1030.2 1030.7 0.0
29/08:30pm 6.5 5.1 3.5 81 1.3 CALM 0 0 0 0 1030.4 1030.9 0.0
29/08:00pm 7.5 5.1 4.1 79 1.5 SE 6 7 3 4 1030.2 1030.7 0.0
29/07:30pm 7.2 5.8 3.4 77 1.6 CALM 0 6 0 3 1030.2 1030.7 0.0
29/07:00pm 7.5 6.1 3.4 75 1.8 CALM 0 0 0 0 1029.8 1030.2 0.0
29/06:30pm 9.6 7.0 4.4 70 2.3 WSW 7 9 4 5 1029.8 1030.2 0.0
29/06:00pm 8.5 4.9 2.7 67 2.5 WNW 11 13 6 7 1029.8 1030.2 0.0
29/05:30pm 10.9 8.2 3.5 60 3.3 NNW 7 9 4 5 1029.1 1029.5 0.0
29/05:00pm 13.0 9.2 3.9 54 4.1 W 13 15 7 8 1029.6 1030.0 0.0
29/04:30pm 14.1 9.9 3.6 49 4.8 W 15 19 8 10 1029.9 1030.4 0.0
29/04:00pm 15.2 11.5 2.4 42 5.7 WNW 11 17 6 9 1029.4 1029.8 0.0
29/03:30pm 15.5 11.7 2.0 40 6.1 WNW 11 15 6 8 1029.1 1029.5 0.0
29/03:00pm 15.8 11.4 0.4 35 6.7 NW 13 19 7 10 1029.2 1029.6 0.0
29/02:30pm 15.8 12.0 1.9 39 6.3 NW 11 20 6 11 1029.7 1030.1 0.0
29/02:00pm 16.3 13.4 2.7 40 6.2 SW 7 13 4 7 1029.9 1030.4 0.0
29/01:30pm 15.7 12.9 2.2 40 6.1 ENE 6 15 3 8 1030.5 1031.0 0.0
29/01:00pm 15.1 12.7 4.2 48 5.1 ENE 6 9 3 5 1031.3 1031.7 0.0
29/12:30pm 14.9 11.9 4.3 49 5.0 ENE 9 19 5 10 1031.8 1032.2 0.0
29/12:00pm 13.7 9.1 3.5 50 4.6 E 17 24 9 13 1032.3 1032.7 0.0
29/11:30am 13.2 8.4 4.6 56 4.0 E 19 24 10 13 1032.7 1033.1 0.0
29/11:00am 12.2 7.0 3.7 56 3.8 E 20 26 11 14 1033.3 1033.8 0.0
29/10:30am 11.0 7.6 5.7 70 2.5 E 13 17 7 9 1033.8 1034.3 0.0
29/10:00am 8.4 4.8 5.0 79 1.5 ESE 13 17 7 9 1034.0 1034.5 0.0
29/09:30am 7.3 4.1 4.9 85 1.1 SE 11 15 6 8 1034.3 1034.8 0.0
29/09:00am 5.4 1.6 3.9 90 0.6 ESE 13 15 7 8 1034.2 1034.7 0.0
29/08:30am 4.3 0.1 3.7 96 0.3 SE 15 19 8 10 1034.5 1034.9 0.0
29/08:00am 3.0 -0.6 2.9 99 0.0 SE 11 13 6 7 1034.3 1034.8 0.0
29/07:30am 0.3 -3.4 0.2 99 0.0 SE 9 11 5 6 1034.1 1034.6 0.0
29/07:00am -1.0 -4.9 -1.4 97 0.1 E 9 11 5 6 1033.7 1034.2 0.0
29/06:30am 0.4 -3.2 0.3 99 0.0 SSE 9 13 5 7 1033.4 1033.9 0.0
29/06:00am 1.4 -3.6 1.3 99 0.0 SE 17 17 9 9 1033.1 1033.6 0.0
29/05:30am 1.6 -3.4 1.5 99 0.0 SSE 17 19 9 10 1032.8 1033.3 0.0
29/05:00am 1.5 -3.5 1.4 99 0.0 SE 17 19 9 10 1032.7 1033.1 0.0
29/04:30am 1.8 -3.1 1.7 99 0.0 SSE 17 19 9 10 1032.5 1032.9 0.0
29/04:00am 2.3 -2.9 2.2 99 0.0 SE 19 22 10 12 1032.3 1032.7 0.0
29/03:30am 2.7 -2.7 2.6 99 0.0 SSE 20 22 11 12 1032.5 1032.9 0.0
29/03:00am 2.3 -2.6 2.2 99 0.0 SSE 17 20 9 11 1032.8 1033.3 0.0
29/02:30am 2.2 -2.7 2.1 99 0.0 SE 17 19 9 10 1032.8 1033.3 0.0
29/02:00am 1.7 -3.3 1.6 99 0.0 SE 17 17 9 9 1032.7 1033.1 0.0
29/01:30am 1.7 -2.9 1.6 99 0.0 SE 15 17 8 9 1033.0 1033.5 0.0
29/01:00am 1.8 -2.8 1.7 99 0.0 SSE 15 17 8 9 1033.5 1034.0 0.0
29/12:30am 2.0 -0.8 1.9 99 0.0 S 6 11 3 6 1033.3 1033.8 0.0
29/12:00am 1.0 -2.7 0.0 93 0.4 SE 9 11 5 6 1033.4 1033.9 0.0
 
Date/Time
EST
Temp
°C
App
Temp
°C
Dew
Point
Rel
Hum
%
Delta-T
°C
Wind Press
QNH
hPa
Press
MSL
hPa
Rain
since 9 am
mm
Dir
 
Spd
km/h
Gust
km/h
Spd
kts
Gust
kts
28/11:30pm 2.4 -1.5 1.1 91 0.5 SSE 11 13 6 7 1033.4 1033.9 0.0
28/11:00pm 3.9 -0.7 3.5 97 0.2 SSE 17 17 9 9 1033.2 1033.7 0.0
28/10:30pm 2.9 -0.8 2.5 97 0.2 S 11 13 6 7 1033.2 1033.7 0.0
28/10:00pm 2.4 -1.5 1.4 93 0.4 SE 11 11 6 6 1033.1 1033.6 0.0
28/09:30pm 4.5 0.9 3.0 90 0.6 S 11 13 6 7 1033.4 1033.9 0.0
28/09:00pm 4.4 1.2 2.9 90 0.6 S 9 11 5 6 1033.4 1033.9 0.0
28/08:30pm 5.9 1.6 3.4 84 1.1 S 15 17 8 9 1033.5 1034.0 0.0
28/08:00pm 6.4 2.2 3.6 82 1.2 SSW 15 17 8 9 1033.4 1033.9 0.0
28/07:30pm 7.4 3.2 4.0 79 1.5 SSW 15 20 8 11 1033.2 1033.7 0.0
28/07:00pm 7.7 3.1 3.9 77 1.6 SW 17 20 9 11 1033.1 1033.6 0.0
28/06:30pm 7.9 3.8 4.1 77 1.7 SW 15 20 8 11 1032.7 1033.1 0.0
28/06:00pm 8.6 4.4 4.0 73 2.0 SW 15 19 8 10 1032.2 1032.6 0.0
28/05:30pm 9.0 4.4 3.6 69 2.4 SW 17 20 9 11 1032.0 1032.4 0.0
28/05:00pm 10.9 6.7 3.9 62 3.1 SW 15 19 8 10 1031.8 1032.2 0.0
28/04:30pm 12.2 7.5 3.4 55 4.0 SSW 17 20 9 11 1031.8 1032.2 0.0
28/04:00pm 12.9 8.3 3.6 53 4.2 SSW 17 22 9 12 1031.9 1032.3 0.0
28/03:30pm 13.0 8.3 3.1 51 4.5 SSW 17 26 9 14 1031.8 1032.2 0.0
28/03:00pm 13.0 7.9 2.8 50 4.5 S 19 24 10 13 1031.8 1032.2 0.0
28/02:30pm 13.9 9.8 4.2 52 4.5 SSW 15 30 8 16 1031.7 1032.1 0.0
28/02:00pm 12.7 8.3 2.8 51 4.4 S 15 24 8 13 1032.0 1032.4 0.0
28/01:30pm 12.8 8.2 3.7 54 4.2 SSW 17 26 9 14 1032.5 1032.9 0.0
28/01:00pm 12.8 7.5 2.9 51 4.4 S 20 28 11 15 1033.0 1033.5 0.0
28/12:30pm 12.5 6.5 3.5 54 4.1 S 24 32 13 17 1033.5 1034.0 0.0
28/12:00pm 11.9 8.0 3.4 56 3.8 SSW 13 26 7 14 1034.0 1034.5 0.0
28/11:30am 12.0 6.9 4.0 58 3.6 S 20 30 11 16 1034.7 1035.1 0.0
28/11:00am 11.0 5.4 3.3 59 3.4 S 22 33 12 18 1035.0 1035.4 0.0
28/10:30am 10.7 4.8 4.0 63 3.0 S 24 33 13 18 1035.1 1035.5 0.0
28/10:00am 10.1 5.2 4.0 66 2.7 S 19 26 10 14 1035.2 1035.6 0.0
28/09:30am 9.3 4.2 3.9 69 2.4 S 20 28 11 15 1035.2 1035.6 0.0
28/09:00am 8.7 5.0 4.7 76 1.8 S 13 20 7 11 1035.1 1035.5 0.0
28/08:30am 6.6 4.0 4.3 85 1.0 E 7 9 4 5 1034.9 1035.3 0.0
28/08:00am 5.8 2.6 3.3 84 1.0 SE 9 15 5 8 1034.7 1035.1 0.0
28/07:30am 5.6 2.5 3.6 87 0.9 SSW 9 13 5 7 1034.3 1034.8 0.0
28/07:00am 4.1 0.1 3.1 93 0.4 SW 13 15 7 8 1034.3 1034.8 0.0
28/06:30am 3.3 -0.5 1.7 89 0.6 SW 11 13 6 7 1034.0 1034.5 0.0
28/06:00am 5.0 1.0 3.0 87 0.8 SSW 13 17 7 9 1033.8 1034.3 0.0
28/05:30am 3.6 -0.2 1.6 87 0.8 SSW 11 15 6 8 1033.5 1034.0 0.0
28/05:00am 3.5 -0.4 1.2 85 0.9 SW 11 13 6 7 1033.0 1033.5 0.0
28/04:30am 3.8 0.3 1.0 82 1.1 SSW 9 11 5 6 1032.8 1033.3 0.0
28/04:00am 5.9 2.5 2.0 76 1.6 SSW 9 13 5 7 1032.6 1033.0 0.0
28/03:30am 6.6 3.3 2.7 76 1.6 SSW 9 11 5 6 1032.6 1033.0 0.0
28/03:00am 7.0 3.0 2.7 74 1.8 S 13 19 7 10 1032.7 1033.1 0.0
28/02:30am 6.7 1.4 2.8 76 1.6 SSW 20 30 11 16 1032.8 1033.3 0.0
28/02:00am 2.9 0.5 1.9 93 0.4 NNW 4 7 2 4 1032.9 1033.4 0.0
28/01:30am 3.1 0.9 1.3 88 0.7 S 2 7 1 4 1032.8 1033.3 0.0
28/01:00am 2.2 -1.4 0.3 87 0.7 SSW 9 11 5 6 1032.7 1033.1 0.0
28/12:30am 3.1 0.6 1.8 91 0.5 WSW 4 9 2 5 1032.6 1033.0 0.0
28/12:00am 2.7 0.9 1.4 91 0.5 CALM 0 0 0 0 1032.6 1033.0 0.0
 
Date/Time
EST
Temp
°C
App
Temp
°C
Dew
Point
Rel
Hum
%
Delta-T
°C
Wind Press
QNH
hPa
Press
MSL
hPa
Rain
since 9 am
mm
Dir
 
Spd
km/h
Gust
km/h
Spd
kts
Gust
kts
27/11:30pm 2.5 -0.5 0.7 88 0.7 W 6 9 3 5 1032.7 1033.1 0.0
27/11:00pm 2.8 -0.8 0.9 87 0.7 SW 9 11 5 6 1032.8 1033.3 0.0
27/10:30pm 3.0 -0.5 1.4 89 0.6 SW 9 11 5 6 1032.7 1033.1 0.0
27/10:00pm 2.4 -1.6 0.6 88 0.7 SW 11 15 6 8 1032.6 1033.0 0.0
27/09:30pm 2.3 -1.5 -0.4 82 1.0 SW 9 13 5 7 1032.6 1033.0 0.0
27/09:00pm 3.5 -0.1 0.7 82 1.1 SW 9 9 5 5 1032.5 1032.9 0.0
27/08:30pm 4.3 1.2 1.3 81 1.2 SW 7 9 4 5 1032.3 1032.7 0.0

Other Formats:

Comma delimited format used in spreadsheet applications
http://www.bom.gov.au/fwo/IDN60801/IDN60801.95719.axf

JavaScript Object Notation format (JSON) in row-major order
http://www.bom.gov.au/fwo/IDN60801/IDN60801.95719.json